sensor_id;sensor_type;location;lat;lon;timestamp;pressure;altitude;pressure_sealevel;temperature;humidity
57050;BME280;42935;50.966;16.992;2022-12-08T00:02:22;100987.41;;;-0.73;100.00
57050;BME280;42935;50.966;16.992;2022-12-08T00:05:32;100987.96;;;-0.67;100.00
57050;BME280;42935;50.966;16.992;2022-12-08T00:08:52;100998.07;;;-0.43;100.00
57050;BME280;42935;50.966;16.992;2022-12-08T00:12:17;100973.90;;;-0.55;100.00
57050;BME280;42935;50.966;16.992;2022-12-08T00:15:26;100983.25;;;-0.30;100.00
57050;BME280;42935;50.966;16.992;2022-12-08T00:18:41;100987.50;;;-0.24;100.00
57050;BME280;42935;50.966;16.992;2022-12-08T00:21:51;100986.88;;;-0.13;100.00
57050;BME280;42935;50.966;16.992;2022-12-08T00:25:35;100978.95;;;-0.08;100.00
57050;BME280;42935;50.966;16.992;2022-12-08T00:28:41;100990.16;;;-0.00;100.00
57050;BME280;42935;50.966;16.992;2022-12-08T00:31:49;100992.82;;;0.07;100.00
57050;BME280;42935;50.966;16.992;2022-12-08T00:35:11;100987.36;;;-0.01;100.00
57050;BME280;42935;50.966;16.992;2022-12-08T00:38:18;100987.67;;;-0.02;100.00
57050;BME280;42935;50.966;16.992;2022-12-08T00:41:26;100992.72;;;0.03;100.00
57050;BME280;42935;50.966;16.992;2022-12-08T00:44:45;100994.88;;;-0.02;100.00
57050;BME280;42935;50.966;16.992;2022-12-08T00:47:56;100996.13;;;0.04;100.00
57050;BME280;42935;50.966;16.992;2022-12-08T00:51:01;101000.04;;;0.05;100.00
57050;BME280;42935;50.966;16.992;2022-12-08T00:54:16;100996.97;;;-0.10;100.00
57050;BME280;42935;50.966;16.992;2022-12-08T00:57:25;101004.43;;;0.07;100.00
57050;BME280;42935;50.966;16.992;2022-12-08T01:00:33;101002.56;;;0.06;100.00
57050;BME280;42935;50.966;16.992;2022-12-08T01:03:42;101003.69;;;-0.02;100.00
57050;BME280;42935;50.966;16.992;2022-12-08T01:07:02;101005.79;;;0.01;100.00
57050;BME280;42935;50.966;16.992;2022-12-08T01:10:12;100998.17;;;-0.05;100.00
57050;BME280;42935;50.966;16.992;2022-12-08T01:13:22;101003.37;;;0.12;100.00
57050;BME280;42935;50.966;16.992;2022-12-08T01:16:33;100995.47;;;0.06;100.00
57050;BME280;42935;50.966;16.992;2022-12-08T01:19:53;100997.45;;;0.15;100.00
57050;BME280;42935;50.966;16.992;2022-12-08T01:23:06;100990.38;;;0.22;100.00
57050;BME280;42935;50.966;16.992;2022-12-08T01:26:14;100988.29;;;0.21;100.00
57050;BME280;42935;50.966;16.992;2022-12-08T01:29:19;100991.49;;;0.36;100.00
57050;BME280;42935;50.966;16.992;2022-12-08T01:32:32;100986.33;;;0.33;100.00
57050;BME280;42935;50.966;16.992;2022-12-08T01:35:44;100980.31;;;0.29;100.00
57050;BME280;42935;50.966;16.992;2022-12-08T01:38:53;100973.70;;;0.35;100.00
57050;BME280;42935;50.966;16.992;2022-12-08T01:42:38;100984.10;;;0.15;100.00
57050;BME280;42935;50.966;16.992;2022-12-08T01:45:47;100979.55;;;0.18;100.00
57050;BME280;42935;50.966;16.992;2022-12-08T01:49:09;100979.60;;;0.07;100.00
57050;BME280;42935;50.966;16.992;2022-12-08T01:52:27;100981.88;;;-0.06;100.00
57050;BME280;42935;50.966;16.992;2022-12-08T01:55:43;100978.92;;;-0.13;100.00
57050;BME280;42935;50.966;16.992;2022-12-08T01:58:55;100977.36;;;-0.17;100.00
57050;BME280;42935;50.966;16.992;2022-12-08T02:02:02;100965.74;;;-0.17;100.00
57050;BME280;42935;50.966;16.992;2022-12-08T02:05:13;100975.74;;;-0.10;100.00
57050;BME280;42935;50.966;16.992;2022-12-08T02:08:25;100965.10;;;-0.15;100.00
57050;BME280;42935;50.966;16.992;2022-12-08T02:11:33;100969.77;;;-0.01;100.00
57050;BME280;42935;50.966;16.992;2022-12-08T02:14:41;100974.75;;;-0.01;100.00
57050;BME280;42935;50.966;16.992;2022-12-08T02:24:49;100974.79;;;-0.01;100.00
57050;BME280;42935;50.966;16.992;2022-12-08T02:44:50;100954.50;;;-0.16;100.00
57050;BME280;42935;50.966;16.992;2022-12-08T02:48:05;100958.70;;;-0.06;100.00
57050;BME280;42935;50.966;16.992;2022-12-08T02:51:17;100958.75;;;0.01;100.00
57050;BME280;42935;50.966;16.992;2022-12-08T02:54:27;100962.28;;;0.01;100.00
57050;BME280;42935;50.966;16.992;2022-12-08T03:04:34;100946.58;;;0.05;100.00
57050;BME280;42935;50.966;16.992;2022-12-08T03:11:27;100950.45;;;0.05;100.00
57050;BME280;42935;50.966;16.992;2022-12-08T03:14:39;100950.98;;;0.07;100.00
57050;BME280;42935;50.966;16.992;2022-12-08T03:17:57;100949.56;;;0.02;100.00
57050;BME280;42935;50.966;16.992;2022-12-08T03:21:06;100952.27;;;-0.03;100.00
57050;BME280;42935;50.966;16.992;2022-12-08T03:24:14;100952.96;;;-0.12;100.00
57050;BME280;42935;50.966;16.992;2022-12-08T03:27:30;100939.20;;;-0.23;100.00
57050;BME280;42935;50.966;16.992;2022-12-08T03:30:43;100953.62;;;-0.11;100.00
57050;BME280;42935;50.966;16.992;2022-12-08T03:33:57;100952.31;;;-0.04;100.00
57050;BME280;42935;50.966;16.992;2022-12-08T03:37:07;100947.01;;;0.02;100.00
57050;BME280;42935;50.966;16.992;2022-12-08T03:40:17;100943.30;;;0.06;100.00
57050;BME280;42935;50.966;16.992;2022-12-08T03:43:30;100956.71;;;0.14;100.00
57050;BME280;42935;50.966;16.992;2022-12-08T03:46:40;100956.66;;;0.14;100.00
57050;BME280;42935;50.966;16.992;2022-12-08T03:49:54;100961.70;;;0.19;100.00
57050;BME280;42935;50.966;16.992;2022-12-08T03:53:02;100948.70;;;0.14;100.00
57050;BME280;42935;50.966;16.992;2022-12-08T03:56:27;100940.91;;;0.16;100.00
57050;BME280;42935;50.966;16.992;2022-12-08T03:59:38;100948.30;;;0.22;100.00
57050;BME280;42935;50.966;16.992;2022-12-08T04:02:47;100946.52;;;0.24;100.00
57050;BME280;42935;50.966;16.992;2022-12-08T04:06:03;100945.37;;;0.24;100.00
57050;BME280;42935;50.966;16.992;2022-12-08T04:09:18;100939.93;;;0.24;100.00
57050;BME280;42935;50.966;16.992;2022-12-08T04:12:26;100937.39;;;0.19;100.00
57050;BME280;42935;50.966;16.992;2022-12-08T04:15:46;100915.18;;;0.02;100.00
57050;BME280;42935;50.966;16.992;2022-12-08T04:18:57;100938.71;;;-0.00;100.00
57050;BME280;42935;50.966;16.992;2022-12-08T04:22:12;100933.53;;;-0.12;100.00
57050;BME280;42935;50.966;16.992;2022-12-08T04:25:20;100926.75;;;-0.17;100.00
57050;BME280;42935;50.966;16.992;2022-12-08T04:28:28;100918.60;;;-0.21;100.00
57050;BME280;42935;50.966;16.992;2022-12-08T04:31:38;100926.94;;;-0.15;100.00
57050;BME280;42935;50.966;16.992;2022-12-08T04:35:16;100926.80;;;-0.21;100.00
57050;BME280;42935;50.966;16.992;2022-12-08T04:38:31;100920.92;;;-0.15;100.00
57050;BME280;42935;50.966;16.992;2022-12-08T04:41:40;100903.28;;;-0.32;100.00
57050;BME280;42935;50.966;16.992;2022-12-08T04:44:57;100916.76;;;-0.31;100.00
57050;BME280;42935;50.966;16.992;2022-12-08T04:48:07;100912.70;;;-0.18;100.00
57050;BME280;42935;50.966;16.992;2022-12-08T04:51:17;100913.30;;;-0.13;100.00
57050;BME280;42935;50.966;16.992;2022-12-08T04:54:25;100917.98;;;-0.17;100.00
57050;BME280;42935;50.966;16.992;2022-12-08T04:57:34;100910.15;;;-0.17;100.00
57050;BME280;42935;50.966;16.992;2022-12-08T05:00:52;100894.52;;;-0.32;100.00
57050;BME280;42935;50.966;16.992;2022-12-08T05:04:02;100912.52;;;-0.16;100.00
57050;BME280;42935;50.966;16.992;2022-12-08T05:07:15;100908.25;;;-0.20;100.00
57050;BME280;42935;50.966;16.992;2022-12-08T05:10:25;100899.91;;;-0.19;100.00
57050;BME280;42935;50.966;16.992;2022-12-08T05:13:33;100906.91;;;-0.18;100.00
57050;BME280;42935;50.966;16.992;2022-12-08T05:16:46;100912.87;;;-0.20;100.00
57050;BME280;42935;50.966;16.992;2022-12-08T05:20:02;100904.17;;;-0.17;100.00
57050;BME280;42935;50.966;16.992;2022-12-08T05:23:21;100909.57;;;-0.08;100.00
57050;BME280;42935;50.966;16.992;2022-12-08T05:26:27;100904.39;;;-0.06;100.00
57050;BME280;42935;50.966;16.992;2022-12-08T05:29:35;100893.02;;;-0.13;100.00
57050;BME280;42935;50.966;16.992;2022-12-08T05:32:43;100890.53;;;-0.11;100.00
57050;BME280;42935;50.966;16.992;2022-12-08T05:35:50;100890.02;;;-0.07;100.00
57050;BME280;42935;50.966;16.992;2022-12-08T05:39:11;100902.83;;;-0.05;100.00
57050;BME280;42935;50.966;16.992;2022-12-08T05:42:26;100891.77;;;-0.09;100.00
57050;BME280;42935;50.966;16.992;2022-12-08T05:45:40;100897.73;;;-0.06;100.00
57050;BME280;42935;50.966;16.992;2022-12-08T05:48:50;100900.72;;;-0.04;100.00
57050;BME280;42935;50.966;16.992;2022-12-08T05:52:00;100900.86;;;-0.13;100.00
57050;BME280;42935;50.966;16.992;2022-12-08T05:55:40;100887.59;;;-0.19;100.00
57050;BME280;42935;50.966;16.992;2022-12-08T05:58:54;100896.03;;;-0.17;100.00
57050;BME280;42935;50.966;16.992;2022-12-08T06:02:12;100898.70;;;-0.17;100.00
57050;BME280;42935;50.966;16.992;2022-12-08T06:05:25;100888.62;;;-0.24;100.00
57050;BME280;42935;50.966;16.992;2022-12-08T06:08:40;100899.43;;;-0.18;100.00
57050;BME280;42935;50.966;16.992;2022-12-08T06:11:54;100903.50;;;-0.18;100.00
57050;BME280;42935;50.966;16.992;2022-12-08T06:15:05;100905.47;;;-0.18;100.00
57050;BME280;42935;50.966;16.992;2022-12-08T06:18:14;100857.63;;;-0.45;100.00
57050;BME280;42935;50.966;16.992;2022-12-08T06:21:22;100905.68;;;-0.19;100.00
57050;BME280;42935;50.966;16.992;2022-12-08T06:24:32;100897.80;;;-0.17;100.00
57050;BME280;42935;50.966;16.992;2022-12-08T06:27:42;100893.80;;;-0.13;100.00
57050;BME280;42935;50.966;16.992;2022-12-08T06:30:49;100897.96;;;-0.05;100.00
57050;BME280;42935;50.966;16.992;2022-12-08T06:33:59;100896.26;;;0.01;100.00
57050;BME280;42935;50.966;16.992;2022-12-08T06:37:13;100890.92;;;-0.07;100.00
57050;BME280;42935;50.966;16.992;2022-12-08T06:40:31;100853.09;;;-0.24;100.00
57050;BME280;42935;50.966;16.992;2022-12-08T06:43:37;100897.42;;;0.14;100.00
57050;BME280;42935;50.966;16.992;2022-12-08T06:46:51;100900.20;;;-0.02;100.00
57050;BME280;42935;50.966;16.992;2022-12-08T06:50:01;100902.47;;;-0.22;100.00
57050;BME280;42935;50.966;16.992;2022-12-08T06:53:13;100898.90;;;-0.09;100.00
57050;BME280;42935;50.966;16.992;2022-12-08T06:56:25;100900.05;;;-0.08;100.00
57050;BME280;42935;50.966;16.992;2022-12-08T06:59:38;100900.13;;;0.05;100.00
57050;BME280;42935;50.966;16.992;2022-12-08T07:02:48;100894.24;;;0.07;100.00
57050;BME280;42935;50.966;16.992;2022-12-08T07:05:59;100905.77;;;0.12;100.00
57050;BME280;42935;50.966;16.992;2022-12-08T07:09:03;100903.40;;;0.09;100.00
57050;BME280;42935;50.966;16.992;2022-12-08T07:12:17;100895.09;;;-0.08;100.00
57050;BME280;42935;50.966;16.992;2022-12-08T07:15:27;100907.06;;;-0.12;100.00
57050;BME280;42935;50.966;16.992;2022-12-08T07:18:45;100898.23;;;-0.22;100.00
57050;BME280;42935;50.966;16.992;2022-12-08T07:21:55;100905.27;;;-0.20;100.00
57050;BME280;42935;50.966;16.992;2022-12-08T07:25:03;100909.18;;;-0.13;100.00
57050;BME280;42935;50.966;16.992;2022-12-08T07:28:19;100904.63;;;-0.02;100.00
57050;BME280;42935;50.966;16.992;2022-12-08T07:31:31;100897.60;;;0.04;100.00
57050;BME280;42935;50.966;16.992;2022-12-08T07:34:41;100887.87;;;0.01;100.00
57050;BME280;42935;50.966;16.992;2022-12-08T07:37:47;100888.24;;;0.08;100.00
57050;BME280;42935;50.966;16.992;2022-12-08T07:41:01;100898.63;;;0.14;100.00
57050;BME280;42935;50.966;16.992;2022-12-08T07:44:11;100898.61;;;0.20;100.00
57050;BME280;42935;50.966;16.992;2022-12-08T07:47:19;100903.16;;;0.26;100.00
57050;BME280;42935;50.966;16.992;2022-12-08T07:50:30;100907.19;;;0.30;100.00
57050;BME280;42935;50.966;16.992;2022-12-08T07:53:41;100906.73;;;0.35;100.00
57050;BME280;42935;50.966;16.992;2022-12-08T07:56:49;100909.06;;;0.38;100.00
57050;BME280;42935;50.966;16.992;2022-12-08T08:00:03;100912.23;;;0.50;100.00
57050;BME280;42935;50.966;16.992;2022-12-08T08:03:17;100906.37;;;0.56;100.00
57050;BME280;42935;50.966;16.992;2022-12-08T08:06:28;100905.19;;;0.64;100.00
57050;BME280;42935;50.966;16.992;2022-12-08T08:09:36;100913.36;;;0.78;100.00
57050;BME280;42935;50.966;16.992;2022-12-08T08:12:48;100913.49;;;0.84;100.00
57050;BME280;42935;50.966;16.992;2022-12-08T08:16:03;100916.67;;;0.92;100.00
57050;BME280;42935;50.966;16.992;2022-12-08T08:19:09;100898.08;;;0.88;100.00
57050;BME280;42935;50.966;16.992;2022-12-08T08:22:19;100900.22;;;0.95;100.00
57050;BME280;42935;50.966;16.992;2022-12-08T08:25:26;100914.77;;;1.09;100.00
57050;BME280;42935;50.966;16.992;2022-12-08T08:28:42;100911.30;;;1.10;100.00
57050;BME280;42935;50.966;16.992;2022-12-08T08:31:57;100912.16;;;1.14;100.00
57050;BME280;42935;50.966;16.992;2022-12-08T08:35:47;100867.04;;;0.90;100.00
57050;BME280;42935;50.966;16.992;2022-12-08T08:38:57;100920.33;;;1.29;100.00
57050;BME280;42935;50.966;16.992;2022-12-08T08:42:07;100917.67;;;1.26;100.00
57050;BME280;42935;50.966;16.992;2022-12-08T08:45:17;100904.07;;;1.25;100.00
57050;BME280;42935;50.966;16.992;2022-12-08T08:48:22;100908.84;;;1.29;100.00
57050;BME280;42935;50.966;16.992;2022-12-08T08:51:32;100902.73;;;1.30;100.00
57050;BME280;42935;50.966;16.992;2022-12-08T08:54:38;100897.61;;;1.34;100.00
57050;BME280;42935;50.966;16.992;2022-12-08T08:57:47;100887.02;;;1.32;100.00
57050;BME280;42935;50.966;16.992;2022-12-08T09:00:57;100896.45;;;1.41;100.00
57050;BME280;42935;50.966;16.992;2022-12-08T09:04:05;100899.57;;;1.43;100.00
57050;BME280;42935;50.966;16.992;2022-12-08T09:07:17;100897.24;;;1.51;100.00
57050;BME280;42935;50.966;16.992;2022-12-08T09:10:22;100890.88;;;1.46;100.00
57050;BME280;42935;50.966;16.992;2022-12-08T09:13:29;100880.79;;;1.41;100.00
57050;BME280;42935;50.966;16.992;2022-12-08T09:16:43;100898.47;;;1.54;100.00
57050;BME280;42935;50.966;16.992;2022-12-08T09:19:53;100897.84;;;1.54;100.00
57050;BME280;42935;50.966;16.992;2022-12-08T09:23:01;100895.44;;;1.57;100.00
57050;BME280;42935;50.966;16.992;2022-12-08T09:26:11;100893.59;;;1.58;100.00
57050;BME280;42935;50.966;16.992;2022-12-08T09:29:20;100891.57;;;1.55;100.00
57050;BME280;42935;50.966;16.992;2022-12-08T09:32:30;100887.64;;;1.54;100.00
57050;BME280;42935;50.966;16.992;2022-12-08T09:35:40;100885.95;;;1.47;100.00
57050;BME280;42935;50.966;16.992;2022-12-08T09:38:50;100882.67;;;1.46;100.00
57050;BME280;42935;50.966;16.992;2022-12-08T09:42:12;100885.45;;;1.50;100.00
57050;BME280;42935;50.966;16.992;2022-12-08T09:45:29;100880.84;;;1.54;100.00
57050;BME280;42935;50.966;16.992;2022-12-08T09:48:57;100857.84;;;1.53;100.00
57050;BME280;42935;50.966;16.992;2022-12-08T09:52:17;100877.06;;;1.79;100.00
57050;BME280;42935;50.966;16.992;2022-12-08T09:55:42;100859.20;;;1.83;100.00
57050;BME280;42935;50.966;16.992;2022-12-08T09:58:59;100843.56;;;1.83;100.00
57050;BME280;42935;50.966;16.992;2022-12-08T10:05:23;100863.70;;;2.07;100.00
57050;BME280;42935;50.966;16.992;2022-12-08T10:18:38;100849.98;;;2.63;100.00
57050;BME280;42935;50.966;16.992;2022-12-08T10:21:44;100832.09;;;2.57;100.00
57050;BME280;42935;50.966;16.992;2022-12-08T10:25:06;100839.52;;;2.72;100.00
57050;BME280;42935;50.966;16.992;2022-12-08T10:28:15;100830.30;;;2.65;100.00
57050;BME280;42935;50.966;16.992;2022-12-08T10:31:26;100835.98;;;2.67;100.00
57050;BME280;42935;50.966;16.992;2022-12-08T10:38:00;100827.48;;;2.76;100.00
57050;BME280;42935;50.966;16.992;2022-12-08T10:41:14;100825.17;;;2.74;100.00
57050;BME280;42935;50.966;16.992;2022-12-08T10:44:31;100819.48;;;2.80;100.00
57050;BME280;42935;50.966;16.992;2022-12-08T10:47:42;100819.65;;;2.80;100.00
57050;BME280;42935;50.966;16.992;2022-12-08T10:50:57;100816.52;;;2.84;100.00
57050;BME280;42935;50.966;16.992;2022-12-08T10:54:03;100817.73;;;2.87;100.00
57050;BME280;42935;50.966;16.992;2022-12-08T10:57:21;100820.03;;;2.93;100.00
57050;BME280;42935;50.966;16.992;2022-12-08T11:00:31;100819.09;;;2.95;100.00
57050;BME280;42935;50.966;16.992;2022-12-08T11:03:58;100806.14;;;2.87;100.00
57050;BME280;42935;50.966;16.992;2022-12-08T11:07:30;100812.40;;;2.95;100.00
57050;BME280;42935;50.966;16.992;2022-12-08T11:11:11;100806.45;;;3.09;100.00
57050;BME280;42935;50.966;16.992;2022-12-08T11:14:24;100803.25;;;3.20;100.00
57050;BME280;42935;50.966;16.992;2022-12-08T11:21:35;100813.09;;;3.30;100.00
57050;BME280;42935;50.966;16.992;2022-12-08T11:24:43;100805.59;;;3.39;100.00
57050;BME280;42935;50.966;16.992;2022-12-08T11:28:25;100805.44;;;3.38;100.00
57050;BME280;42935;50.966;16.992;2022-12-08T11:31:40;100802.19;;;3.37;100.00
57050;BME280;42935;50.966;16.992;2022-12-08T11:34:55;100800.27;;;3.37;100.00
57050;BME280;42935;50.966;16.992;2022-12-08T11:38:12;100792.62;;;3.42;100.00
57050;BME280;42935;50.966;16.992;2022-12-08T11:41:29;100799.02;;;3.59;100.00
57050;BME280;42935;50.966;16.992;2022-12-08T11:44:46;100760.43;;;3.48;100.00
57050;BME280;42935;50.966;16.992;2022-12-08T11:48:04;100751.02;;;3.49;100.00
57050;BME280;42935;50.966;16.992;2022-12-08T11:58:37;100788.84;;;3.89;100.00
57050;BME280;42935;50.966;16.992;2022-12-08T12:01:51;100784.25;;;3.79;100.00
57050;BME280;42935;50.966;16.992;2022-12-08T12:05:09;100777.99;;;3.78;100.00
57050;BME280;42935;50.966;16.992;2022-12-08T12:08:33;100777.00;;;3.72;100.00
57050;BME280;42935;50.966;16.992;2022-12-08T12:18:38;100766.36;;;3.52;100.00
57050;BME280;42935;50.966;16.992;2022-12-08T12:21:55;100769.76;;;3.58;100.00
57050;BME280;42935;50.966;16.992;2022-12-08T12:25:04;100770.27;;;3.55;100.00
57050;BME280;42935;50.966;16.992;2022-12-08T12:28:14;100771.33;;;3.55;100.00
57050;BME280;42935;50.966;16.992;2022-12-08T12:31:46;100770.09;;;3.51;100.00
57050;BME280;42935;50.966;16.992;2022-12-08T12:34:56;100774.17;;;3.54;100.00
57050;BME280;42935;50.966;16.992;2022-12-08T12:41:42;100773.46;;;3.53;100.00
57050;BME280;42935;50.966;16.992;2022-12-08T12:45:09;100763.30;;;3.48;100.00
57050;BME280;42935;50.966;16.992;2022-12-08T12:48:23;100769.15;;;3.37;100.00
57050;BME280;42935;50.966;16.992;2022-12-08T13:01:49;100762.70;;;3.09;100.00
57050;BME280;42935;50.966;16.992;2022-12-08T13:08:25;100765.35;;;2.80;100.00
57050;BME280;42935;50.966;16.992;2022-12-08T13:11:47;100759.99;;;2.77;100.00
57050;BME280;42935;50.966;16.992;2022-12-08T13:15:06;100750.57;;;2.60;100.00
57050;BME280;42935;50.966;16.992;2022-12-08T13:18:58;100751.93;;;2.53;100.00
57050;BME280;42935;50.966;16.992;2022-12-08T13:25:46;100762.58;;;2.49;100.00
57050;BME280;42935;50.966;16.992;2022-12-08T13:35:39;100763.51;;;2.46;100.00
57050;BME280;42935;50.966;16.992;2022-12-08T13:38:55;100756.73;;;2.30;100.00
57050;BME280;42935;50.966;16.992;2022-12-08T13:45:24;100765.80;;;2.44;100.00
57050;BME280;42935;50.966;16.992;2022-12-08T13:48:49;100753.60;;;2.37;100.00
57050;BME280;42935;50.966;16.992;2022-12-08T13:51:58;100749.90;;;2.38;100.00
57050;BME280;42935;50.966;16.992;2022-12-08T13:58:36;100752.16;;;2.28;100.00
57050;BME280;42935;50.966;16.992;2022-12-08T14:01:47;100707.55;;;1.76;100.00
57050;BME280;42935;50.966;16.992;2022-12-08T14:04:55;100738.59;;;1.99;100.00
57050;BME280;42935;50.966;16.992;2022-12-08T14:11:37;100753.47;;;1.56;100.00
57050;BME280;42935;50.966;16.992;2022-12-08T14:15:01;100750.32;;;1.57;100.00
57050;BME280;42935;50.966;16.992;2022-12-08T14:25:13;100750.66;;;1.58;100.00
57050;BME280;42935;50.966;16.992;2022-12-08T14:28:21;100746.20;;;1.52;100.00
57050;BME280;42935;50.966;16.992;2022-12-08T14:31:35;100753.40;;;1.39;100.00
57050;BME280;42935;50.966;16.992;2022-12-08T14:34:49;100755.96;;;1.29;100.00
57050;BME280;42935;50.966;16.992;2022-12-08T14:41:24;100754.98;;;1.18;100.00
57050;BME280;42935;50.966;16.992;2022-12-08T14:44:38;100738.98;;;1.05;100.00
57050;BME280;42935;50.966;16.992;2022-12-08T14:47:49;100755.95;;;1.17;100.00
57050;BME280;42935;50.966;16.992;2022-12-08T14:54:21;100755.73;;;1.01;100.00
57050;BME280;42935;50.966;16.992;2022-12-08T14:57:49;100766.21;;;0.97;100.00
57050;BME280;42935;50.966;16.992;2022-12-08T15:01:06;100758.17;;;0.86;100.00
57050;BME280;42935;50.966;16.992;2022-12-08T15:04:28;100759.33;;;0.78;100.00
57050;BME280;42935;50.966;16.992;2022-12-08T15:14:27;100758.55;;;0.72;100.00
57050;BME280;42935;50.966;16.992;2022-12-08T15:21:34;100767.94;;;0.75;100.00
57050;BME280;42935;50.966;16.992;2022-12-08T15:24:45;100768.60;;;0.70;100.00
57050;BME280;42935;50.966;16.992;2022-12-08T15:27:55;100772.50;;;0.72;100.00
57050;BME280;42935;50.966;16.992;2022-12-08T15:31:07;100763.91;;;0.62;100.00
57050;BME280;42935;50.966;16.992;2022-12-08T15:34:18;100769.88;;;0.72;100.00
57050;BME280;42935;50.966;16.992;2022-12-08T15:37:28;100772.81;;;0.70;100.00
57050;BME280;42935;50.966;16.992;2022-12-08T15:40:46;100778.84;;;0.26;100.00
57050;BME280;42935;50.966;16.992;2022-12-08T15:43:54;100777.02;;;-0.09;100.00
57050;BME280;42935;50.966;16.992;2022-12-08T15:47:23;100776.24;;;-0.02;100.00
57050;BME280;42935;50.966;16.992;2022-12-08T15:50:25;100767.74;;;0.09;100.00
57050;BME280;42935;50.966;16.992;2022-12-08T15:53:31;100759.80;;;0.29;100.00
57050;BME280;42935;50.966;16.992;2022-12-08T15:56:52;100762.70;;;0.51;100.00
57050;BME280;42935;50.966;16.992;2022-12-08T16:00:23;100755.98;;;0.56;100.00
57050;BME280;42935;50.966;16.992;2022-12-08T16:03:33;100732.59;;;0.54;100.00
57050;BME280;42935;50.966;16.992;2022-12-08T16:06:48;100760.09;;;0.42;100.00
57050;BME280;42935;50.966;16.992;2022-12-08T16:10:07;100765.18;;;0.51;100.00
57050;BME280;42935;50.966;16.992;2022-12-08T16:13:23;100759.31;;;0.61;100.00
57050;BME280;42935;50.966;16.992;2022-12-08T16:16:46;100766.05;;;0.70;100.00
57050;BME280;42935;50.966;16.992;2022-12-08T16:20:01;100757.17;;;0.73;100.00
57050;BME280;42935;50.966;16.992;2022-12-08T16:23:08;100768.36;;;0.90;100.00
57050;BME280;42935;50.966;16.992;2022-12-08T16:26:22;100767.64;;;0.80;100.00
57050;BME280;42935;50.966;16.992;2022-12-08T16:29:33;100758.70;;;0.73;100.00
57050;BME280;42935;50.966;16.992;2022-12-08T16:32:43;100744.63;;;0.40;100.00
57050;BME280;42935;50.966;16.992;2022-12-08T16:35:58;100755.34;;;0.29;100.00
57050;BME280;42935;50.966;16.992;2022-12-08T16:39:08;100765.55;;;0.21;100.00
57050;BME280;42935;50.966;16.992;2022-12-08T16:42:26;100764.60;;;0.13;100.00
57050;BME280;42935;50.966;16.992;2022-12-08T16:45:56;100761.49;;;0.07;100.00
57050;BME280;42935;50.966;16.992;2022-12-08T16:49:10;100756.60;;;-0.13;100.00
57050;BME280;42935;50.966;16.992;2022-12-08T16:52:26;100763.99;;;-0.12;100.00
57050;BME280;42935;50.966;16.992;2022-12-08T16:55:44;100764.24;;;-0.16;100.00
57050;BME280;42935;50.966;16.992;2022-12-08T16:58:57;100762.13;;;-0.06;100.00
57050;BME280;42935;50.966;16.992;2022-12-08T17:02:10;100764.67;;;-0.35;100.00
57050;BME280;42935;50.966;16.992;2022-12-08T17:05:24;100759.10;;;-0.29;100.00
57050;BME280;42935;50.966;16.992;2022-12-08T17:08:36;100754.71;;;-0.40;100.00
57050;BME280;42935;50.966;16.992;2022-12-08T17:11:49;100757.99;;;-0.38;100.00
57050;BME280;42935;50.966;16.992;2022-12-08T17:15:09;100753.95;;;-0.39;100.00
57050;BME280;42935;50.966;16.992;2022-12-08T17:18:22;100746.50;;;-0.44;100.00
57050;BME280;42935;50.966;16.992;2022-12-08T17:21:32;100741.47;;;-0.80;100.00
57050;BME280;42935;50.966;16.992;2022-12-08T17:24:46;100748.11;;;-1.01;100.00
57050;BME280;42935;50.966;16.992;2022-12-08T17:28:00;100753.43;;;-0.79;100.00
57050;BME280;42935;50.966;16.992;2022-12-08T17:31:15;100755.37;;;-0.98;100.00
57050;BME280;42935;50.966;16.992;2022-12-08T17:34:29;100762.28;;;-0.84;100.00
57050;BME280;42935;50.966;16.992;2022-12-08T17:37:39;100761.48;;;-0.79;100.00
57050;BME280;42935;50.966;16.992;2022-12-08T17:40:53;100764.61;;;-0.73;100.00
57050;BME280;42935;50.966;16.992;2022-12-08T17:44:02;100763.51;;;-0.66;100.00
57050;BME280;42935;50.966;16.992;2022-12-08T17:47:16;100751.77;;;-0.99;100.00
57050;BME280;42935;50.966;16.992;2022-12-08T17:50:25;100755.61;;;-1.10;100.00
57050;BME280;42935;50.966;16.992;2022-12-08T17:53:30;100761.49;;;-0.94;100.00
57050;BME280;42935;50.966;16.992;2022-12-08T17:56:46;100760.87;;;-1.05;100.00
57050;BME280;42935;50.966;16.992;2022-12-08T18:00:00;100760.38;;;-0.95;100.00
57050;BME280;42935;50.966;16.992;2022-12-08T18:03:13;100765.47;;;-0.96;100.00
57050;BME280;42935;50.966;16.992;2022-12-08T18:06:28;100759.80;;;-0.96;100.00
57050;BME280;42935;50.966;16.992;2022-12-08T18:09:41;100768.91;;;-0.88;100.00
57050;BME280;42935;50.966;16.992;2022-12-08T18:12:49;100762.14;;;-0.97;100.00
57050;BME280;42935;50.966;16.992;2022-12-08T18:15:57;100770.40;;;-0.81;100.00
57050;BME280;42935;50.966;16.992;2022-12-08T18:19:08;100761.08;;;-0.84;100.00
57050;BME280;42935;50.966;16.992;2022-12-08T18:22:30;100758.49;;;-0.87;100.00
57050;BME280;42935;50.966;16.992;2022-12-08T18:25:40;100766.08;;;-0.74;100.00
57050;BME280;42935;50.966;16.992;2022-12-08T18:28:50;100772.73;;;-0.75;100.00
57050;BME280;42935;50.966;16.992;2022-12-08T18:32:05;100773.54;;;-0.90;100.00
57050;BME280;42935;50.966;16.992;2022-12-08T18:35:22;100773.94;;;-0.79;100.00
57050;BME280;42935;50.966;16.992;2022-12-08T18:38:30;100771.20;;;-0.82;100.00
57050;BME280;42935;50.966;16.992;2022-12-08T18:41:49;100778.29;;;-0.74;100.00
57050;BME280;42935;50.966;16.992;2022-12-08T18:45:07;100763.44;;;-0.86;100.00